sensor_id;sensor_type;location;lat;lon;timestamp;P1;durP1;ratioP1;P2;durP2;ratioP2
15883;SDS011;8040;50.254;10.960;2023-02-13T00:01:00;414.33;;;104.37;;
15883;SDS011;8040;50.254;10.960;2023-02-13T00:03:25;416.00;;;104.07;;
15883;SDS011;8040;50.254;10.960;2023-02-13T00:05:51;415.57;;;105.57;;
15883;SDS011;8040;50.254;10.960;2023-02-13T00:08:16;418.17;;;107.63;;
15883;SDS011;8040;50.254;10.960;2023-02-13T00:10:41;419.10;;;108.63;;
15883;SDS011;8040;50.254;10.960;2023-02-13T00:13:07;417.97;;;106.73;;
15883;SDS011;8040;50.254;10.960;2023-02-13T00:15:32;415.43;;;106.07;;
15883;SDS011;8040;50.254;10.960;2023-02-13T00:17:57;413.33;;;103.40;;
15883;SDS011;8040;50.254;10.960;2023-02-13T00:20:23;430.13;;;108.43;;
15883;SDS011;8040;50.254;10.960;2023-02-13T00:22:48;414.87;;;103.07;;
15883;SDS011;8040;50.254;10.960;2023-02-13T00:25:14;462.30;;;129.17;;
15883;SDS011;8040;50.254;10.960;2023-02-13T00:27:41;414.85;;;105.57;;
15883;SDS011;8040;50.254;10.960;2023-02-13T00:30:08;433.80;;;115.30;;
15883;SDS011;8040;50.254;10.960;2023-02-13T00:32:34;414.58;;;103.32;;
15883;SDS011;8040;50.254;10.960;2023-02-13T00:35:00;420.13;;;106.00;;
15883;SDS011;8040;50.254;10.960;2023-02-13T00:37:25;424.20;;;110.73;;
15883;SDS011;8040;50.254;10.960;2023-02-13T00:39:50;411.63;;;102.17;;
15883;SDS011;8040;50.254;10.960;2023-02-13T00:42:16;415.40;;;104.60;;
15883;SDS011;8040;50.254;10.960;2023-02-13T00:44:42;418.95;;;108.47;;
15883;SDS011;8040;50.254;10.960;2023-02-13T00:47:07;418.77;;;107.88;;
15883;SDS011;8040;50.254;10.960;2023-02-13T00:49:33;422.90;;;109.18;;
15883;SDS011;8040;50.254;10.960;2023-02-13T00:51:59;417.77;;;104.70;;
15883;SDS011;8040;50.254;10.960;2023-02-13T00:54:24;414.33;;;103.80;;
15883;SDS011;8040;50.254;10.960;2023-02-13T00:56:49;412.50;;;101.73;;
15883;SDS011;8040;50.254;10.960;2023-02-13T00:59:15;412.77;;;104.00;;
15883;SDS011;8040;50.254;10.960;2023-02-13T01:01:41;425.20;;;105.43;;
15883;SDS011;8040;50.254;10.960;2023-02-13T01:04:08;414.03;;;102.50;;
15883;SDS011;8040;50.254;10.960;2023-02-13T01:06:34;419.33;;;105.22;;
15883;SDS011;8040;50.254;10.960;2023-02-13T01:08:59;417.02;;;105.80;;
15883;SDS011;8040;50.254;10.960;2023-02-13T01:11:27;417.60;;;107.72;;
15883;SDS011;8040;50.254;10.960;2023-02-13T01:13:52;417.27;;;107.07;;
15883;SDS011;8040;50.254;10.960;2023-02-13T01:16:18;412.73;;;102.30;;
15883;SDS011;8040;50.254;10.960;2023-02-13T01:18:44;413.33;;;102.77;;
15883;SDS011;8040;50.254;10.960;2023-02-13T01:21:13;412.55;;;101.13;;
15883;SDS011;8040;50.254;10.960;2023-02-13T01:23:41;411.83;;;102.65;;
15883;SDS011;8040;50.254;10.960;2023-02-13T01:26:07;411.33;;;101.63;;
15883;SDS011;8040;50.254;10.960;2023-02-13T01:28:35;417.92;;;106.50;;
15883;SDS011;8040;50.254;10.960;2023-02-13T01:31:00;417.17;;;105.47;;
15883;SDS011;8040;50.254;10.960;2023-02-13T01:33:27;426.37;;;107.10;;
15883;SDS011;8040;50.254;10.960;2023-02-13T01:35:53;414.02;;;103.00;;
15883;SDS011;8040;50.254;10.960;2023-02-13T01:38:18;415.10;;;101.90;;
15883;SDS011;8040;50.254;10.960;2023-02-13T01:40:45;412.05;;;102.45;;
15883;SDS011;8040;50.254;10.960;2023-02-13T01:43:12;411.50;;;102.60;;
15883;SDS011;8040;50.254;10.960;2023-02-13T01:45:37;412.00;;;101.47;;
15883;SDS011;8040;50.254;10.960;2023-02-13T01:48:22;411.47;;;100.33;;
15883;SDS011;8040;50.254;10.960;2023-02-13T01:51:01;427.77;;;111.67;;
15883;SDS011;8040;50.254;10.960;2023-02-13T01:56:10;411.23;;;100.20;;
15883;SDS011;8040;50.254;10.960;2023-02-13T01:58:42;414.67;;;101.97;;
15883;SDS011;8040;50.254;10.960;2023-02-13T02:01:10;409.98;;;100.20;;
15883;SDS011;8040;50.254;10.960;2023-02-13T02:03:37;411.73;;;98.60;;
15883;SDS011;8040;50.254;10.960;2023-02-13T02:06:34;412.65;;;101.13;;
15883;SDS011;8040;50.254;10.960;2023-02-13T02:09:08;427.80;;;112.28;;
15883;SDS011;8040;50.254;10.960;2023-02-13T02:11:45;410.10;;;99.95;;
15883;SDS011;8040;50.254;10.960;2023-02-13T02:14:12;412.08;;;99.70;;
15883;SDS011;8040;50.254;10.960;2023-02-13T02:16:38;411.50;;;99.23;;
15883;SDS011;8040;50.254;10.960;2023-02-13T02:19:04;410.90;;;97.90;;
15883;SDS011;8040;50.254;10.960;2023-02-13T02:22:24;412.75;;;101.07;;
15883;SDS011;8040;50.254;10.960;2023-02-13T02:33:20;416.67;;;103.40;;
15883;SDS011;8040;50.254;10.960;2023-02-13T02:36:36;414.77;;;101.10;;
15883;SDS011;8040;50.254;10.960;2023-02-13T02:39:28;427.70;;;111.32;;
15883;SDS011;8040;50.254;10.960;2023-02-13T02:42:17;416.85;;;99.25;;
15883;SDS011;8040;50.254;10.960;2023-02-13T02:45:08;410.77;;;97.88;;
15883;SDS011;8040;50.254;10.960;2023-02-13T02:47:51;410.58;;;96.10;;
15883;SDS011;8040;50.254;10.960;2023-02-13T02:51:02;410.73;;;97.22;;
15883;SDS011;8040;50.254;10.960;2023-02-13T02:56:24;413.33;;;102.00;;
15883;SDS011;8040;50.254;10.960;2023-02-13T02:59:02;412.25;;;97.57;;
15883;SDS011;8040;50.254;10.960;2023-02-13T03:01:49;408.40;;;94.60;;
15883;SDS011;8040;50.254;10.960;2023-02-13T03:04:39;414.40;;;99.65;;
15883;SDS011;8040;50.254;10.960;2023-02-13T03:07:26;409.98;;;97.40;;
15883;SDS011;8040;50.254;10.960;2023-02-13T03:09:54;429.20;;;112.20;;
15883;SDS011;8040;50.254;10.960;2023-02-13T03:12:47;413.17;;;103.13;;
15883;SDS011;8040;50.254;10.960;2023-02-13T03:15:45;427.73;;;110.80;;
15883;SDS011;8040;50.254;10.960;2023-02-13T03:18:34;411.05;;;101.50;;
15883;SDS011;8040;50.254;10.960;2023-02-13T03:21:28;409.50;;;97.55;;
15883;SDS011;8040;50.254;10.960;2023-02-13T03:24:26;415.35;;;98.30;;
15883;SDS011;8040;50.254;10.960;2023-02-13T03:27:07;430.73;;;102.10;;
15883;SDS011;8040;50.254;10.960;2023-02-13T03:30:58;414.10;;;99.28;;
15883;SDS011;8040;50.254;10.960;2023-02-13T03:36:41;411.63;;;95.75;;
15883;SDS011;8040;50.254;10.960;2023-02-13T03:44:58;413.33;;;97.65;;
15883;SDS011;8040;50.254;10.960;2023-02-13T03:47:49;414.98;;;101.25;;
15883;SDS011;8040;50.254;10.960;2023-02-13T03:50:17;422.48;;;102.70;;
15883;SDS011;8040;50.254;10.960;2023-02-13T03:55:20;410.00;;;96.40;;
15883;SDS011;8040;50.254;10.960;2023-02-13T03:58:16;416.38;;;101.50;;
15883;SDS011;8040;50.254;10.960;2023-02-13T04:01:06;425.10;;;101.90;;
15883;SDS011;8040;50.254;10.960;2023-02-13T04:03:38;420.10;;;104.95;;
15883;SDS011;8040;50.254;10.960;2023-02-13T04:06:07;418.73;;;99.50;;
15883;SDS011;8040;50.254;10.960;2023-02-13T04:08:35;413.40;;;100.85;;
15883;SDS011;8040;50.254;10.960;2023-02-13T04:14:00;411.42;;;95.75;;
15883;SDS011;8040;50.254;10.960;2023-02-13T04:19:05;415.30;;;98.40;;
15883;SDS011;8040;50.254;10.960;2023-02-13T04:21:33;413.48;;;99.22;;
15883;SDS011;8040;50.254;10.960;2023-02-13T04:23:59;420.50;;;101.65;;
15883;SDS011;8040;50.254;10.960;2023-02-13T04:26:25;412.60;;;97.53;;
15883;SDS011;8040;50.254;10.960;2023-02-13T04:28:57;421.67;;;104.90;;
15883;SDS011;8040;50.254;10.960;2023-02-13T04:31:22;411.43;;;96.77;;
15883;SDS011;8040;50.254;10.960;2023-02-13T04:33:47;409.75;;;95.55;;
15883;SDS011;8040;50.254;10.960;2023-02-13T04:36:13;411.20;;;98.07;;
15883;SDS011;8040;50.254;10.960;2023-02-13T04:38:38;408.27;;;93.95;;
15883;SDS011;8040;50.254;10.960;2023-02-13T04:41:03;425.57;;;112.43;;
15883;SDS011;8040;50.254;10.960;2023-02-13T04:43:29;419.38;;;99.78;;
15883;SDS011;8040;50.254;10.960;2023-02-13T04:45:54;410.85;;;97.35;;
15883;SDS011;8040;50.254;10.960;2023-02-13T04:48:19;415.70;;;98.30;;
15883;SDS011;8040;50.254;10.960;2023-02-13T04:50:45;413.98;;;98.88;;
15883;SDS011;8040;50.254;10.960;2023-02-13T04:53:11;448.55;;;129.98;;
15883;SDS011;8040;50.254;10.960;2023-02-13T04:55:37;416.60;;;98.47;;
15883;SDS011;8040;50.254;10.960;2023-02-13T04:58:05;409.45;;;96.38;;
15883;SDS011;8040;50.254;10.960;2023-02-13T05:00:31;411.23;;;103.97;;
15883;SDS011;8040;50.254;10.960;2023-02-13T05:03:00;404.98;;;95.07;;
15883;SDS011;8040;50.254;10.960;2023-02-13T05:05:29;441.23;;;131.07;;
15883;SDS011;8040;50.254;10.960;2023-02-13T05:07:54;418.83;;;119.53;;
15883;SDS011;8040;50.254;10.960;2023-02-13T05:10:19;406.20;;;94.53;;
15883;SDS011;8040;50.254;10.960;2023-02-13T05:12:46;407.20;;;96.60;;
15883;SDS011;8040;50.254;10.960;2023-02-13T05:15:12;408.45;;;96.40;;
15883;SDS011;8040;50.254;10.960;2023-02-13T05:17:37;417.77;;;104.63;;
15883;SDS011;8040;50.254;10.960;2023-02-13T05:20:02;415.37;;;98.70;;
15883;SDS011;8040;50.254;10.960;2023-02-13T05:22:28;406.87;;;94.90;;
15883;SDS011;8040;50.254;10.960;2023-02-13T05:25:12;415.10;;;102.07;;
15883;SDS011;8040;50.254;10.960;2023-02-13T05:27:37;410.37;;;98.70;;
15883;SDS011;8040;50.254;10.960;2023-02-13T05:30:03;434.40;;;116.67;;
15883;SDS011;8040;50.254;10.960;2023-02-13T05:32:28;411.33;;;96.37;;
15883;SDS011;8040;50.254;10.960;2023-02-13T05:34:54;406.23;;;93.50;;
15883;SDS011;8040;50.254;10.960;2023-02-13T05:37:19;415.87;;;98.50;;
15883;SDS011;8040;50.254;10.960;2023-02-13T05:39:44;414.80;;;99.07;;
15883;SDS011;8040;50.254;10.960;2023-02-13T05:42:10;421.17;;;105.57;;
15883;SDS011;8040;50.254;10.960;2023-02-13T05:44:37;408.27;;;95.47;;
15883;SDS011;8040;50.254;10.960;2023-02-13T05:47:02;411.27;;;97.93;;
15883;SDS011;8040;50.254;10.960;2023-02-13T05:49:28;413.13;;;99.33;;
15883;SDS011;8040;50.254;10.960;2023-02-13T05:51:53;418.43;;;99.30;;
15883;SDS011;8040;50.254;10.960;2023-02-13T05:54:18;418.57;;;103.33;;
15883;SDS011;8040;50.254;10.960;2023-02-13T05:56:44;410.83;;;95.83;;
15883;SDS011;8040;50.254;10.960;2023-02-13T05:59:10;405.67;;;94.90;;
15883;SDS011;8040;50.254;10.960;2023-02-13T06:01:35;406.42;;;96.35;;
15883;SDS011;8040;50.254;10.960;2023-02-13T06:04:00;418.67;;;97.57;;
15883;SDS011;8040;50.254;10.960;2023-02-13T06:06:26;423.60;;;104.43;;
15883;SDS011;8040;50.254;10.960;2023-02-13T06:08:52;409.40;;;96.75;;
15883;SDS011;8040;50.254;10.960;2023-02-13T06:11:17;418.47;;;99.60;;
15883;SDS011;8040;50.254;10.960;2023-02-13T06:13:43;426.83;;;104.83;;
15883;SDS011;8040;50.254;10.960;2023-02-13T06:16:09;425.88;;;107.88;;
15883;SDS011;8040;50.254;10.960;2023-02-13T06:18:36;427.30;;;110.00;;
15883;SDS011;8040;50.254;10.960;2023-02-13T06:21:01;411.30;;;98.05;;
15883;SDS011;8040;50.254;10.960;2023-02-13T06:23:28;427.75;;;107.50;;
15883;SDS011;8040;50.254;10.960;2023-02-13T06:25:53;419.58;;;99.45;;
15883;SDS011;8040;50.254;10.960;2023-02-13T06:28:19;415.05;;;102.82;;
15883;SDS011;8040;50.254;10.960;2023-02-13T06:30:44;429.30;;;109.50;;
15883;SDS011;8040;50.254;10.960;2023-02-13T06:33:09;421.38;;;105.00;;
15883;SDS011;8040;50.254;10.960;2023-02-13T06:35:36;420.38;;;107.82;;
15883;SDS011;8040;50.254;10.960;2023-02-13T06:38:01;417.87;;;104.43;;
15883;SDS011;8040;50.254;10.960;2023-02-13T06:40:27;426.47;;;107.67;;
15883;SDS011;8040;50.254;10.960;2023-02-13T06:42:52;424.47;;;109.33;;
15883;SDS011;8040;50.254;10.960;2023-02-13T06:45:18;425.47;;;105.47;;
15883;SDS011;8040;50.254;10.960;2023-02-13T06:47:45;421.92;;;103.93;;
15883;SDS011;8040;50.254;10.960;2023-02-13T06:50:12;428.80;;;106.15;;
15883;SDS011;8040;50.254;10.960;2023-02-13T06:52:39;434.55;;;106.90;;
15883;SDS011;8040;50.254;10.960;2023-02-13T06:55:10;439.08;;;107.97;;
15883;SDS011;8040;50.254;10.960;2023-02-13T06:57:35;418.20;;;103.97;;
15883;SDS011;8040;50.254;10.960;2023-02-13T07:00:01;423.10;;;101.17;;
15883;SDS011;8040;50.254;10.960;2023-02-13T07:02:30;431.55;;;112.70;;
15883;SDS011;8040;50.254;10.960;2023-02-13T07:04:58;424.98;;;105.43;;
15883;SDS011;8040;50.254;10.960;2023-02-13T07:07:23;416.05;;;100.30;;
15883;SDS011;8040;50.254;10.960;2023-02-13T07:09:49;416.38;;;99.75;;
15883;SDS011;8040;50.254;10.960;2023-02-13T07:12:14;415.42;;;99.05;;
15883;SDS011;8040;50.254;10.960;2023-02-13T07:14:42;428.52;;;109.18;;
15883;SDS011;8040;50.254;10.960;2023-02-13T07:17:07;414.97;;;101.27;;
15883;SDS011;8040;50.254;10.960;2023-02-13T07:19:35;417.95;;;101.15;;
15883;SDS011;8040;50.254;10.960;2023-02-13T07:22:00;415.80;;;100.82;;
15883;SDS011;8040;50.254;10.960;2023-02-13T07:24:25;423.67;;;104.93;;
15883;SDS011;8040;50.254;10.960;2023-02-13T07:26:51;426.90;;;104.47;;
15883;SDS011;8040;50.254;10.960;2023-02-13T07:29:16;413.25;;;97.43;;
15883;SDS011;8040;50.254;10.960;2023-02-13T07:31:41;416.65;;;99.70;;
15883;SDS011;8040;50.254;10.960;2023-02-13T07:34:07;412.52;;;99.07;;
15883;SDS011;8040;50.254;10.960;2023-02-13T07:36:32;414.27;;;100.22;;
15883;SDS011;8040;50.254;10.960;2023-02-13T07:38:58;412.45;;;100.00;;
15883;SDS011;8040;50.254;10.960;2023-02-13T07:41:23;420.70;;;100.83;;
15883;SDS011;8040;50.254;10.960;2023-02-13T07:43:54;426.27;;;112.60;;
15883;SDS011;8040;50.254;10.960;2023-02-13T07:46:19;428.07;;;111.30;;
15883;SDS011;8040;50.254;10.960;2023-02-13T07:48:45;420.27;;;106.10;;
15883;SDS011;8040;50.254;10.960;2023-02-13T07:51:10;423.67;;;106.70;;
15883;SDS011;8040;50.254;10.960;2023-02-13T07:53:38;415.63;;;99.93;;
15883;SDS011;8040;50.254;10.960;2023-02-13T07:56:04;414.73;;;100.47;;
15883;SDS011;8040;50.254;10.960;2023-02-13T07:58:31;426.73;;;105.80;;
15883;SDS011;8040;50.254;10.960;2023-02-13T08:00:56;409.88;;;97.55;;
15883;SDS011;8040;50.254;10.960;2023-02-13T08:03:22;411.73;;;97.97;;
15883;SDS011;8040;50.254;10.960;2023-02-13T08:05:47;411.52;;;98.60;;
15883;SDS011;8040;50.254;10.960;2023-02-13T08:08:13;420.00;;;103.93;;
15883;SDS011;8040;50.254;10.960;2023-02-13T08:10:39;413.90;;;100.27;;
15883;SDS011;8040;50.254;10.960;2023-02-13T08:13:25;414.13;;;101.15;;
15883;SDS011;8040;50.254;10.960;2023-02-13T08:15:51;416.08;;;104.43;;
15883;SDS011;8040;50.254;10.960;2023-02-13T08:18:17;416.70;;;105.75;;
15883;SDS011;8040;50.254;10.960;2023-02-13T08:20:42;456.30;;;105.00;;
15883;SDS011;8040;50.254;10.960;2023-02-13T08:23:11;413.52;;;102.00;;
15883;SDS011;8040;50.254;10.960;2023-02-13T08:26:00;412.43;;;101.57;;
15883;SDS011;8040;50.254;10.960;2023-02-13T08:28:27;459.63;;;111.47;;
15883;SDS011;8040;50.254;10.960;2023-02-13T08:30:59;420.42;;;104.30;;
15883;SDS011;8040;50.254;10.960;2023-02-13T08:33:27;418.02;;;102.57;;
15883;SDS011;8040;50.254;10.960;2023-02-13T08:35:52;418.20;;;102.47;;
15883;SDS011;8040;50.254;10.960;2023-02-13T08:38:18;436.30;;;115.97;;
15883;SDS011;8040;50.254;10.960;2023-02-13T08:40:43;430.67;;;110.13;;
15883;SDS011;8040;50.254;10.960;2023-02-13T08:43:08;438.63;;;118.97;;
15883;SDS011;8040;50.254;10.960;2023-02-13T08:45:35;418.70;;;104.40;;
15883;SDS011;8040;50.254;10.960;2023-02-13T08:48:01;420.98;;;106.38;;
15883;SDS011;8040;50.254;10.960;2023-02-13T08:50:27;418.57;;;104.17;;
15883;SDS011;8040;50.254;10.960;2023-02-13T08:52:53;421.63;;;105.30;;
15883;SDS011;8040;50.254;10.960;2023-02-13T08:55:19;414.65;;;102.82;;
15883;SDS011;8040;50.254;10.960;2023-02-13T08:57:44;418.45;;;103.35;;
15883;SDS011;8040;50.254;10.960;2023-02-13T09:00:10;416.20;;;102.70;;
15883;SDS011;8040;50.254;10.960;2023-02-13T09:02:35;417.97;;;105.13;;
15883;SDS011;8040;50.254;10.960;2023-02-13T09:05:04;458.38;;;114.43;;
15883;SDS011;8040;50.254;10.960;2023-02-13T09:07:32;426.77;;;105.82;;
15883;SDS011;8040;50.254;10.960;2023-02-13T09:10:11;422.23;;;104.10;;
15883;SDS011;8040;50.254;10.960;2023-02-13T09:25:43;426.27;;;111.53;;
15883;SDS011;8040;50.254;10.960;2023-02-13T09:28:10;421.08;;;108.45;;
15883;SDS011;8040;50.254;10.960;2023-02-13T09:30:35;434.30;;;112.90;;
15883;SDS011;8040;50.254;10.960;2023-02-13T09:33:02;420.15;;;107.25;;
15883;SDS011;8040;50.254;10.960;2023-02-13T09:35:27;424.30;;;110.30;;
15883;SDS011;8040;50.254;10.960;2023-02-13T09:37:53;427.47;;;106.37;;
15883;SDS011;8040;50.254;10.960;2023-02-13T09:40:52;421.47;;;106.27;;
15883;SDS011;8040;50.254;10.960;2023-02-13T09:45:48;418.85;;;109.75;;
15883;SDS011;8040;50.254;10.960;2023-02-13T09:48:17;420.40;;;108.80;;
15883;SDS011;8040;50.254;10.960;2023-02-13T09:50:48;421.67;;;110.88;;
15883;SDS011;8040;50.254;10.960;2023-02-13T09:53:18;418.97;;;107.90;;
15883;SDS011;8040;50.254;10.960;2023-02-13T09:55:53;423.25;;;109.70;;
15883;SDS011;8040;50.254;10.960;2023-02-13T10:01:02;418.77;;;107.18;;
15883;SDS011;8040;50.254;10.960;2023-02-13T10:03:35;422.42;;;106.47;;
15883;SDS011;8040;50.254;10.960;2023-02-13T10:14:10;425.75;;;115.53;;
15883;SDS011;8040;50.254;10.960;2023-02-13T10:25:09;417.80;;;109.43;;
15883;SDS011;8040;50.254;10.960;2023-02-13T10:27:45;421.52;;;109.90;;
15883;SDS011;8040;50.254;10.960;2023-02-13T10:35:39;422.30;;;111.47;;
15883;SDS011;8040;50.254;10.960;2023-02-13T10:38:11;422.67;;;114.53;;
15883;SDS011;8040;50.254;10.960;2023-02-13T10:40:43;431.40;;;117.97;;
15883;SDS011;8040;50.254;10.960;2023-02-13T10:43:27;423.90;;;111.93;;
15883;SDS011;8040;50.254;10.960;2023-02-13T10:49:10;433.55;;;114.00;;
15883;SDS011;8040;50.254;10.960;2023-02-13T10:54:27;418.48;;;108.85;;
15883;SDS011;8040;50.254;10.960;2023-02-13T10:57:11;419.17;;;110.35;;
15883;SDS011;8040;50.254;10.960;2023-02-13T10:59:57;424.05;;;113.25;;
15883;SDS011;8040;50.254;10.960;2023-02-13T11:02:56;436.48;;;117.38;;
15883;SDS011;8040;50.254;10.960;2023-02-13T11:05:24;434.38;;;118.82;;
15883;SDS011;8040;50.254;10.960;2023-02-13T11:07:55;417.27;;;108.45;;
15883;SDS011;8040;50.254;10.960;2023-02-13T11:10:22;421.45;;;111.55;;
15883;SDS011;8040;50.254;10.960;2023-02-13T11:12:49;419.25;;;109.88;;
15883;SDS011;8040;50.254;10.960;2023-02-13T11:15:29;426.98;;;114.45;;
15883;SDS011;8040;50.254;10.960;2023-02-13T11:18:01;419.27;;;110.95;;
15883;SDS011;8040;50.254;10.960;2023-02-13T11:20:41;439.23;;;118.47;;
15883;SDS011;8040;50.254;10.960;2023-02-13T11:23:27;422.30;;;115.70;;
15883;SDS011;8040;50.254;10.960;2023-02-13T11:28:24;428.03;;;119.27;;
15883;SDS011;8040;50.254;10.960;2023-02-13T11:33:37;430.33;;;119.80;;
15883;SDS011;8040;50.254;10.960;2023-02-13T11:36:12;420.63;;;114.03;;
15883;SDS011;8040;50.254;10.960;2023-02-13T11:38:55;421.60;;;116.53;;
15883;SDS011;8040;50.254;10.960;2023-02-13T11:41:25;419.55;;;114.03;;
15883;SDS011;8040;50.254;10.960;2023-02-13T11:46:29;441.48;;;143.02;;
15883;SDS011;8040;50.254;10.960;2023-02-13T11:49:12;428.90;;;127.60;;
15883;SDS011;8040;50.254;10.960;2023-02-13T11:51:44;426.63;;;125.65;;
15883;SDS011;8040;50.254;10.960;2023-02-13T11:57:00;424.27;;;122.47;;
15883;SDS011;8040;50.254;10.960;2023-02-13T11:59:46;425.88;;;121.63;;
15883;SDS011;8040;50.254;10.960;2023-02-13T12:02:29;421.55;;;119.60;;
15883;SDS011;8040;50.254;10.960;2023-02-13T12:07:43;429.33;;;125.57;;
15883;SDS011;8040;50.254;10.960;2023-02-13T12:15:22;442.90;;;136.43;;
15883;SDS011;8040;50.254;10.960;2023-02-13T12:18:15;438.30;;;133.52;;
15883;SDS011;8040;50.254;10.960;2023-02-13T12:20:59;444.02;;;165.32;;
15883;SDS011;8040;50.254;10.960;2023-02-13T12:23:48;433.70;;;137.57;;
15883;SDS011;8040;50.254;10.960;2023-02-13T12:26:32;435.40;;;142.73;;
15883;SDS011;8040;50.254;10.960;2023-02-13T12:37:58;434.40;;;127.07;;
15883;SDS011;8040;50.254;10.960;2023-02-13T12:46:33;436.58;;;125.82;;
15883;SDS011;8040;50.254;10.960;2023-02-13T12:49:12;427.88;;;122.55;;
15883;SDS011;8040;50.254;10.960;2023-02-13T12:52:15;420.80;;;120.55;;
15883;SDS011;8040;50.254;10.960;2023-02-13T13:19:30;442.60;;;158.25;;
15883;SDS011;8040;50.254;10.960;2023-02-13T13:24:50;429.63;;;133.07;;
15883;SDS011;8040;50.254;10.960;2023-02-13T13:27:22;433.92;;;137.95;;
15883;SDS011;8040;50.254;10.960;2023-02-13T13:29:53;438.73;;;153.85;;
15883;SDS011;8040;50.254;10.960;2023-02-13T13:32:22;438.45;;;160.35;;
15883;SDS011;8040;50.254;10.960;2023-02-13T13:34:49;459.33;;;173.93;;
15883;SDS011;8040;50.254;10.960;2023-02-13T13:39:57;433.55;;;146.52;;
15883;SDS011;8040;50.254;10.960;2023-02-13T13:42:39;444.48;;;170.35;;
15883;SDS011;8040;50.254;10.960;2023-02-13T13:51:11;439.00;;;154.82;;
15883;SDS011;8040;50.254;10.960;2023-02-13T13:56:24;425.25;;;132.52;;
15883;SDS011;8040;50.254;10.960;2023-02-13T13:58:49;425.13;;;130.73;;
15883;SDS011;8040;50.254;10.960;2023-02-13T14:03:41;428.33;;;121.50;;
15883;SDS011;8040;50.254;10.960;2023-02-13T14:06:15;446.52;;;137.73;;
15883;SDS011;8040;50.254;10.960;2023-02-13T14:08:59;423.63;;;120.38;;
15883;SDS011;8040;50.254;10.960;2023-02-13T14:11:33;436.27;;;128.03;;
15883;SDS011;8040;50.254;10.960;2023-02-13T14:16:52;430.83;;;127.03;;
15883;SDS011;8040;50.254;10.960;2023-02-13T14:21:47;427.37;;;125.67;;
15883;SDS011;8040;50.254;10.960;2023-02-13T14:24:12;426.20;;;125.27;;
15883;SDS011;8040;50.254;10.960;2023-02-13T14:26:38;426.35;;;124.45;;
15883;SDS011;8040;50.254;10.960;2023-02-13T14:29:21;431.00;;;125.47;;
15883;SDS011;8040;50.254;10.960;2023-02-13T14:32:01;433.15;;;136.30;;
15883;SDS011;8040;50.254;10.960;2023-02-13T14:34:30;432.10;;;130.00;;
15883;SDS011;8040;50.254;10.960;2023-02-13T14:37:01;420.05;;;126.05;;
15883;SDS011;8040;50.254;10.960;2023-02-13T14:39:30;436.77;;;131.40;;
15883;SDS011;8040;50.254;10.960;2023-02-13T14:42:03;430.15;;;130.15;;
15883;SDS011;8040;50.254;10.960;2023-02-13T14:44:52;434.52;;;129.73;;
15883;SDS011;8040;50.254;10.960;2023-02-13T14:47:30;423.58;;;135.23;;
15883;SDS011;8040;50.254;10.960;2023-02-13T14:50:04;429.88;;;130.02;;
15883;SDS011;8040;50.254;10.960;2023-02-13T14:52:32;430.27;;;129.20;;
15883;SDS011;8040;50.254;10.960;2023-02-13T14:55:02;433.40;;;131.02;;
15883;SDS011;8040;50.254;10.960;2023-02-13T14:57:36;425.77;;;130.93;;
15883;SDS011;8040;50.254;10.960;2023-02-13T15:00:23;429.42;;;129.68;;
15883;SDS011;8040;50.254;10.960;2023-02-13T15:02:53;434.25;;;137.07;;
15883;SDS011;8040;50.254;10.960;2023-02-13T15:05:23;429.15;;;128.63;;
15883;SDS011;8040;50.254;10.960;2023-02-13T15:08:02;429.33;;;132.77;;
15883;SDS011;8040;50.254;10.960;2023-02-13T15:10:42;428.50;;;131.30;;
15883;SDS011;8040;50.254;10.960;2023-02-13T15:13:14;431.20;;;130.32;;
15883;SDS011;8040;50.254;10.960;2023-02-13T15:16:12;430.50;;;129.15;;
15883;SDS011;8040;50.254;10.960;2023-02-13T15:18:40;442.90;;;138.27;;
15883;SDS011;8040;50.254;10.960;2023-02-13T15:21:15;433.30;;;131.95;;
15883;SDS011;8040;50.254;10.960;2023-02-13T15:23:43;425.25;;;127.43;;
15883;SDS011;8040;50.254;10.960;2023-02-13T15:26:22;424.92;;;128.63;;
15883;SDS011;8040;50.254;10.960;2023-02-13T15:29:04;432.45;;;132.25;;
15883;SDS011;8040;50.254;10.960;2023-02-13T15:31:38;437.33;;;135.73;;
15883;SDS011;8040;50.254;10.960;2023-02-13T15:34:16;437.97;;;139.63;;
15883;SDS011;8040;50.254;10.960;2023-02-13T15:36:45;430.83;;;138.15;;
15883;SDS011;8040;50.254;10.960;2023-02-13T15:39:14;431.77;;;141.93;;
15883;SDS011;8040;50.254;10.960;2023-02-13T15:41:55;435.00;;;136.90;;
15883;SDS011;8040;50.254;10.960;2023-02-13T15:44:26;452.08;;;143.70;;
15883;SDS011;8040;50.254;10.960;2023-02-13T15:47:04;450.42;;;146.93;;
15883;SDS011;8040;50.254;10.960;2023-02-13T15:49:35;423.55;;;125.90;;
15883;SDS011;8040;50.254;10.960;2023-02-13T15:52:07;422.20;;;124.22;;
15883;SDS011;8040;50.254;10.960;2023-02-13T15:54:45;429.92;;;128.48;;
15883;SDS011;8040;50.254;10.960;2023-02-13T15:57:15;427.90;;;127.15;;
15883;SDS011;8040;50.254;10.960;2023-02-13T15:59:41;438.30;;;134.52;;
15883;SDS011;8040;50.254;10.960;2023-02-13T16:02:13;427.73;;;127.60;;
15883;SDS011;8040;50.254;10.960;2023-02-13T16:04:44;437.63;;;136.13;;
15883;SDS011;8040;50.254;10.960;2023-02-13T16:07:11;435.80;;;134.25;;
15883;SDS011;8040;50.254;10.960;2023-02-13T16:09:38;433.05;;;129.27;;
15883;SDS011;8040;50.254;10.960;2023-02-13T16:14:33;432.15;;;126.75;;
15883;SDS011;8040;50.254;10.960;2023-02-13T16:17:05;434.00;;;130.45;;
15883;SDS011;8040;50.254;10.960;2023-02-13T16:25:09;429.23;;;120.07;;
15883;SDS011;8040;50.254;10.960;2023-02-13T16:28:41;427.85;;;120.28;;
15883;SDS011;8040;50.254;10.960;2023-02-13T16:30:49;480.17;;;127.00;;
15883;SDS011;8040;50.254;10.960;2023-02-13T16:33:21;454.73;;;124.40;;
15883;SDS011;8040;50.254;10.960;2023-02-13T16:41:27;425.58;;;118.60;;
15883;SDS011;8040;50.254;10.960;2023-02-13T16:44:04;420.90;;;118.43;;
15883;SDS011;8040;50.254;10.960;2023-02-13T16:49:32;420.43;;;114.10;;
15883;SDS011;8040;50.254;10.960;2023-02-13T16:51:59;419.48;;;113.47;;
15883;SDS011;8040;50.254;10.960;2023-02-13T16:54:36;419.90;;;114.47;;
15883;SDS011;8040;50.254;10.960;2023-02-13T17:04:47;425.25;;;117.75;;
15883;SDS011;8040;50.254;10.960;2023-02-13T17:07:23;425.13;;;113.40;;
15883;SDS011;8040;50.254;10.960;2023-02-13T17:10:23;420.73;;;109.57;;
15883;SDS011;8040;50.254;10.960;2023-02-13T17:13:01;417.92;;;108.43;;
15883;SDS011;8040;50.254;10.960;2023-02-13T17:15:32;422.58;;;115.35;;
15883;SDS011;8040;50.254;10.960;2023-02-13T17:17:59;420.98;;;112.75;;
15883;SDS011;8040;50.254;10.960;2023-02-13T17:20:26;437.83;;;124.93;;
15883;SDS011;8040;50.254;10.960;2023-02-13T17:22:54;430.30;;;118.28;;
15883;SDS011;8040;50.254;10.960;2023-02-13T17:25:25;419.23;;;116.72;;